Wellsburg, Iowa
Current Conditions -  °F | °C
As of 4:55 PM on Tuesday 27 Jan 2015 (Local Time) from KIFA Reporting Station
Overcast Overcast  
Wind Chill: 26°   Ceiling: 1600
Heat Index: 34°   Visibility: 10mi
Dew Point: 31°   Wind: 10mph
Humidity: 89%   Direction: 110°ESE
Pressure: 30.16"   Gusts: NA
Location:  42.46°N, 92.94°W
Report Text: KIFA 272255Z AUTO 11009KT 10SM OVC016 01/M01 A3016 RMK AO2 T00101007
Loading
Personal Weather Stations






























Interactive Weather Map New forecast layout! Learn more

10-Day Weather Forecast

Advertisements
Track Severe Weather on mobile